sensor_id;sensor_type;location;lat;lon;timestamp;P1;durP1;ratioP1;P2;durP2;ratioP2
58946;SDS011;44724;52.332;4.978;2022-09-12T00:01:01;17.45;;;12.68;;
58946;SDS011;44724;52.332;4.978;2022-09-12T00:03:28;17.25;;;13.10;;
58946;SDS011;44724;52.332;4.978;2022-09-12T00:05:53;19.70;;;13.40;;
58946;SDS011;44724;52.332;4.978;2022-09-12T00:08:19;19.27;;;13.43;;
58946;SDS011;44724;52.332;4.978;2022-09-12T00:10:44;22.13;;;13.63;;
58946;SDS011;44724;52.332;4.978;2022-09-12T00:13:10;20.13;;;13.63;;
58946;SDS011;44724;52.332;4.978;2022-09-12T00:15:39;20.73;;;13.65;;
58946;SDS011;44724;52.332;4.978;2022-09-12T00:18:07;20.75;;;15.00;;
58946;SDS011;44724;52.332;4.978;2022-09-12T00:20:34;22.90;;;14.57;;
58946;SDS011;44724;52.332;4.978;2022-09-12T00:22:59;20.13;;;14.65;;
58946;SDS011;44724;52.332;4.978;2022-09-12T00:25:25;24.90;;;14.77;;
58946;SDS011;44724;52.332;4.978;2022-09-12T00:27:51;22.23;;;15.32;;
58946;SDS011;44724;52.332;4.978;2022-09-12T00:30:16;23.50;;;14.63;;
58946;SDS011;44724;52.332;4.978;2022-09-12T00:32:41;24.60;;;15.80;;
58946;SDS011;44724;52.332;4.978;2022-09-12T00:35:07;23.75;;;15.63;;
58946;SDS011;44724;52.332;4.978;2022-09-12T00:37:33;27.23;;;16.73;;
58946;SDS011;44724;52.332;4.978;2022-09-12T00:39:59;26.38;;;16.33;;
58946;SDS011;44724;52.332;4.978;2022-09-12T00:42:24;24.48;;;16.50;;
58946;SDS011;44724;52.332;4.978;2022-09-12T00:44:50;24.00;;;16.35;;
58946;SDS011;44724;52.332;4.978;2022-09-12T00:47:24;26.75;;;17.40;;
58946;SDS011;44724;52.332;4.978;2022-09-12T00:49:57;24.85;;;16.65;;
58946;SDS011;44724;52.332;4.978;2022-09-12T00:55:18;27.52;;;17.45;;
58946;SDS011;44724;52.332;4.978;2022-09-12T00:57:49;28.05;;;17.95;;
58946;SDS011;44724;52.332;4.978;2022-09-12T01:00:29;31.52;;;19.00;;
58946;SDS011;44724;52.332;4.978;2022-09-12T01:02:59;27.35;;;18.00;;
58946;SDS011;44724;52.332;4.978;2022-09-12T01:05:28;28.73;;;18.33;;
58946;SDS011;44724;52.332;4.978;2022-09-12T01:07:58;31.42;;;19.55;;
58946;SDS011;44724;52.332;4.978;2022-09-12T01:10:28;34.10;;;19.42;;
58946;SDS011;44724;52.332;4.978;2022-09-12T01:12:54;30.13;;;19.08;;
58946;SDS011;44724;52.332;4.978;2022-09-12T01:15:19;31.75;;;19.58;;
58946;SDS011;44724;52.332;4.978;2022-09-12T01:26:24;40.83;;;20.80;;
58946;SDS011;44724;52.332;4.978;2022-09-12T01:28:56;37.13;;;19.95;;
58946;SDS011;44724;52.332;4.978;2022-09-12T01:34:14;36.95;;;21.77;;
58946;SDS011;44724;52.332;4.978;2022-09-12T01:45:11;36.80;;;21.45;;
58946;SDS011;44724;52.332;4.978;2022-09-12T01:47:55;37.30;;;22.23;;
58946;SDS011;44724;52.332;4.978;2022-09-12T01:50:26;38.70;;;22.17;;
58946;SDS011;44724;52.332;4.978;2022-09-12T02:00:31;37.08;;;21.27;;
58946;SDS011;44724;52.332;4.978;2022-09-12T02:03:03;38.30;;;21.52;;
58946;SDS011;44724;52.332;4.978;2022-09-12T02:05:35;35.88;;;21.20;;
58946;SDS011;44724;52.332;4.978;2022-09-12T02:08:09;42.42;;;22.48;;
58946;SDS011;44724;52.332;4.978;2022-09-12T02:10:43;39.47;;;21.17;;
58946;SDS011;44724;52.332;4.978;2022-09-12T02:13:21;38.83;;;22.33;;
58946;SDS011;44724;52.332;4.978;2022-09-12T02:15:52;40.45;;;22.38;;
58946;SDS011;44724;52.332;4.978;2022-09-12T02:18:20;40.63;;;22.48;;
58946;SDS011;44724;52.332;4.978;2022-09-12T02:20:51;40.25;;;23.35;;
58946;SDS011;44724;52.332;4.978;2022-09-12T02:23:19;39.35;;;22.90;;
58946;SDS011;44724;52.332;4.978;2022-09-12T02:25:48;45.08;;;23.48;;
58946;SDS011;44724;52.332;4.978;2022-09-12T02:28:21;41.80;;;23.40;;
58946;SDS011;44724;52.332;4.978;2022-09-12T02:36:53;36.42;;;21.88;;
58946;SDS011;44724;52.332;4.978;2022-09-12T02:39:34;38.28;;;21.60;;
58946;SDS011;44724;52.332;4.978;2022-09-12T02:42:00;43.33;;;22.10;;
58946;SDS011;44724;52.332;4.978;2022-09-12T02:44:27;38.05;;;22.08;;
58946;SDS011;44724;52.332;4.978;2022-09-12T02:46:56;35.47;;;20.75;;
58946;SDS011;44724;52.332;4.978;2022-09-12T02:49:27;41.55;;;21.60;;
58946;SDS011;44724;52.332;4.978;2022-09-12T02:51:53;47.58;;;22.08;;
58946;SDS011;44724;52.332;4.978;2022-09-12T02:54:19;39.97;;;22.55;;
58946;SDS011;44724;52.332;4.978;2022-09-12T02:56:45;35.53;;;20.95;;
58946;SDS011;44724;52.332;4.978;2022-09-12T02:59:11;42.63;;;22.52;;
58946;SDS011;44724;52.332;4.978;2022-09-12T03:04:37;40.00;;;21.63;;
58946;SDS011;44724;52.332;4.978;2022-09-12T03:10:19;43.05;;;22.33;;
58946;SDS011;44724;52.332;4.978;2022-09-12T03:18:34;41.70;;;22.02;;
58946;SDS011;44724;52.332;4.978;2022-09-12T03:24:34;44.45;;;22.17;;
58946;SDS011;44724;52.332;4.978;2022-09-12T03:27:08;39.67;;;22.85;;
58946;SDS011;44724;52.332;4.978;2022-09-12T03:29:40;43.88;;;24.05;;
58946;SDS011;44724;52.332;4.978;2022-09-12T03:32:07;45.25;;;24.90;;
58946;SDS011;44724;52.332;4.978;2022-09-12T03:34:33;46.40;;;25.02;;
58946;SDS011;44724;52.332;4.978;2022-09-12T03:36:58;48.75;;;25.38;;
58946;SDS011;44724;52.332;4.978;2022-09-12T03:39:24;46.17;;;24.98;;
58946;SDS011;44724;52.332;4.978;2022-09-12T03:41:51;47.10;;;24.50;;
58946;SDS011;44724;52.332;4.978;2022-09-12T03:44:17;46.10;;;23.77;;
58946;SDS011;44724;52.332;4.978;2022-09-12T03:46:43;43.72;;;23.80;;
58946;SDS011;44724;52.332;4.978;2022-09-12T03:49:08;43.97;;;23.52;;
58946;SDS011;44724;52.332;4.978;2022-09-12T03:51:35;45.20;;;24.88;;
58946;SDS011;44724;52.332;4.978;2022-09-12T03:54:01;46.33;;;24.55;;
58946;SDS011;44724;52.332;4.978;2022-09-12T03:56:26;47.35;;;24.38;;
58946;SDS011;44724;52.332;4.978;2022-09-12T03:58:51;49.40;;;24.30;;
58946;SDS011;44724;52.332;4.978;2022-09-12T04:01:18;48.22;;;25.67;;
58946;SDS011;44724;52.332;4.978;2022-09-12T04:03:44;50.83;;;25.60;;
58946;SDS011;44724;52.332;4.978;2022-09-12T04:06:13;51.45;;;25.45;;
58946;SDS011;44724;52.332;4.978;2022-09-12T04:08:42;52.92;;;26.73;;
58946;SDS011;44724;52.332;4.978;2022-09-12T04:11:09;48.53;;;25.00;;
58946;SDS011;44724;52.332;4.978;2022-09-12T04:13:37;50.67;;;24.83;;
58946;SDS011;44724;52.332;4.978;2022-09-12T04:16:03;51.17;;;25.42;;
58946;SDS011;44724;52.332;4.978;2022-09-12T04:18:29;50.70;;;26.50;;
58946;SDS011;44724;52.332;4.978;2022-09-12T04:20:56;49.08;;;25.88;;
58946;SDS011;44724;52.332;4.978;2022-09-12T04:23:22;49.22;;;26.40;;
58946;SDS011;44724;52.332;4.978;2022-09-12T04:25:57;47.95;;;25.00;;
58946;SDS011;44724;52.332;4.978;2022-09-12T04:28:24;53.25;;;25.77;;
58946;SDS011;44724;52.332;4.978;2022-09-12T04:30:51;49.80;;;25.48;;
58946;SDS011;44724;52.332;4.978;2022-09-12T04:33:16;58.17;;;27.58;;
58946;SDS011;44724;52.332;4.978;2022-09-12T04:35:42;50.60;;;25.27;;
58946;SDS011;44724;52.332;4.978;2022-09-12T04:38:09;51.25;;;25.73;;
58946;SDS011;44724;52.332;4.978;2022-09-12T04:40:35;52.97;;;26.23;;
58946;SDS011;44724;52.332;4.978;2022-09-12T04:43:00;49.28;;;26.10;;
58946;SDS011;44724;52.332;4.978;2022-09-12T04:45:26;55.38;;;27.35;;
58946;SDS011;44724;52.332;4.978;2022-09-12T04:47:51;55.83;;;26.25;;
58946;SDS011;44724;52.332;4.978;2022-09-12T04:50:17;50.72;;;25.40;;
58946;SDS011;44724;52.332;4.978;2022-09-12T04:52:42;45.45;;;25.23;;
58946;SDS011;44724;52.332;4.978;2022-09-12T04:55:08;53.42;;;26.48;;
58946;SDS011;44724;52.332;4.978;2022-09-12T04:57:34;50.22;;;25.05;;
58946;SDS011;44724;52.332;4.978;2022-09-12T05:00:00;51.85;;;26.33;;
58946;SDS011;44724;52.332;4.978;2022-09-12T05:02:27;53.25;;;26.02;;
58946;SDS011;44724;52.332;4.978;2022-09-12T05:04:53;53.53;;;26.88;;
58946;SDS011;44724;52.332;4.978;2022-09-12T05:07:18;51.08;;;25.73;;
58946;SDS011;44724;52.332;4.978;2022-09-12T05:09:44;53.22;;;27.58;;
58946;SDS011;44724;52.332;4.978;2022-09-12T05:12:09;49.47;;;25.42;;
58946;SDS011;44724;52.332;4.978;2022-09-12T05:14:35;54.08;;;25.10;;
58946;SDS011;44724;52.332;4.978;2022-09-12T05:17:01;50.88;;;25.33;;
58946;SDS011;44724;52.332;4.978;2022-09-12T05:19:27;47.95;;;25.77;;
58946;SDS011;44724;52.332;4.978;2022-09-12T05:21:54;52.20;;;26.80;;
58946;SDS011;44724;52.332;4.978;2022-09-12T05:24:20;54.05;;;27.65;;
58946;SDS011;44724;52.332;4.978;2022-09-12T05:26:45;50.78;;;26.33;;
58946;SDS011;44724;52.332;4.978;2022-09-12T05:29:11;51.30;;;25.95;;
58946;SDS011;44724;52.332;4.978;2022-09-12T05:31:37;52.30;;;26.02;;
58946;SDS011;44724;52.332;4.978;2022-09-12T05:34:03;48.63;;;25.20;;
58946;SDS011;44724;52.332;4.978;2022-09-12T05:36:31;51.28;;;25.02;;
58946;SDS011;44724;52.332;4.978;2022-09-12T05:38:58;49.85;;;26.40;;
58946;SDS011;44724;52.332;4.978;2022-09-12T05:41:25;50.60;;;25.35;;
58946;SDS011;44724;52.332;4.978;2022-09-12T05:43:58;54.60;;;26.17;;
58946;SDS011;44724;52.332;4.978;2022-09-12T05:46:26;46.95;;;25.40;;
58946;SDS011;44724;52.332;4.978;2022-09-12T05:48:53;47.13;;;25.13;;
58946;SDS011;44724;52.332;4.978;2022-09-12T05:51:20;46.30;;;25.50;;
58946;SDS011;44724;52.332;4.978;2022-09-12T05:53:48;47.83;;;24.38;;
58946;SDS011;44724;52.332;4.978;2022-09-12T05:56:20;51.07;;;25.50;;
58946;SDS011;44724;52.332;4.978;2022-09-12T05:58:51;46.42;;;24.67;;
58946;SDS011;44724;52.332;4.978;2022-09-12T06:01:19;48.83;;;24.88;;
58946;SDS011;44724;52.332;4.978;2022-09-12T06:03:45;48.35;;;25.02;;
58946;SDS011;44724;52.332;4.978;2022-09-12T06:06:16;51.20;;;25.88;;
58946;SDS011;44724;52.332;4.978;2022-09-12T06:08:47;47.97;;;25.17;;
58946;SDS011;44724;52.332;4.978;2022-09-12T06:11:18;54.80;;;24.95;;
58946;SDS011;44724;52.332;4.978;2022-09-12T06:13:45;49.47;;;25.83;;
58946;SDS011;44724;52.332;4.978;2022-09-12T06:16:12;49.92;;;25.20;;
58946;SDS011;44724;52.332;4.978;2022-09-12T06:18:40;51.95;;;25.75;;
58946;SDS011;44724;52.332;4.978;2022-09-12T06:23:33;47.85;;;25.17;;
58946;SDS011;44724;52.332;4.978;2022-09-12T06:25:59;48.67;;;25.70;;
58946;SDS011;44724;52.332;4.978;2022-09-12T06:28:25;51.90;;;24.73;;
58946;SDS011;44724;52.332;4.978;2022-09-12T06:30:51;47.05;;;23.80;;
58946;SDS011;44724;52.332;4.978;2022-09-12T06:33:17;49.92;;;25.05;;
58946;SDS011;44724;52.332;4.978;2022-09-12T06:35:45;50.88;;;25.73;;
58946;SDS011;44724;52.332;4.978;2022-09-12T06:38:10;50.42;;;25.85;;
58946;SDS011;44724;52.332;4.978;2022-09-12T06:40:42;44.58;;;24.42;;
58946;SDS011;44724;52.332;4.978;2022-09-12T06:43:13;45.03;;;23.73;;
58946;SDS011;44724;52.332;4.978;2022-09-12T06:45:38;48.08;;;24.88;;
58946;SDS011;44724;52.332;4.978;2022-09-12T06:48:11;42.78;;;22.98;;
58946;SDS011;44724;52.332;4.978;2022-09-12T06:50:37;39.22;;;23.80;;
58946;SDS011;44724;52.332;4.978;2022-09-12T06:53:05;41.33;;;23.48;;
58946;SDS011;44724;52.332;4.978;2022-09-12T06:55:31;41.28;;;23.40;;
58946;SDS011;44724;52.332;4.978;2022-09-12T06:57:57;44.00;;;24.08;;
58946;SDS011;44724;52.332;4.978;2022-09-12T07:00:23;42.88;;;23.45;;
58946;SDS011;44724;52.332;4.978;2022-09-12T07:02:52;40.00;;;23.67;;
58946;SDS011;44724;52.332;4.978;2022-09-12T07:05:20;45.83;;;23.67;;
58946;SDS011;44724;52.332;4.978;2022-09-12T07:07:46;47.83;;;24.13;;
58946;SDS011;44724;52.332;4.978;2022-09-12T07:10:11;40.90;;;21.88;;
58946;SDS011;44724;52.332;4.978;2022-09-12T07:12:37;39.60;;;21.20;;
58946;SDS011;44724;52.332;4.978;2022-09-12T07:15:02;39.72;;;23.25;;
58946;SDS011;44724;52.332;4.978;2022-09-12T07:17:27;44.55;;;23.80;;
58946;SDS011;44724;52.332;4.978;2022-09-12T07:19:53;41.22;;;23.55;;
58946;SDS011;44724;52.332;4.978;2022-09-12T07:22:18;38.03;;;23.15;;
58946;SDS011;44724;52.332;4.978;2022-09-12T07:24:44;41.75;;;23.05;;
58946;SDS011;44724;52.332;4.978;2022-09-12T07:27:10;34.78;;;20.90;;
58946;SDS011;44724;52.332;4.978;2022-09-12T07:29:35;35.30;;;21.80;;
58946;SDS011;44724;52.332;4.978;2022-09-12T07:32:01;32.95;;;20.98;;
58946;SDS011;44724;52.332;4.978;2022-09-12T07:34:27;38.60;;;21.98;;
58946;SDS011;44724;52.332;4.978;2022-09-12T07:36:52;31.75;;;19.45;;
58946;SDS011;44724;52.332;4.978;2022-09-12T07:39:18;37.47;;;21.92;;
58946;SDS011;44724;52.332;4.978;2022-09-12T07:41:44;33.00;;;21.55;;
58946;SDS011;44724;52.332;4.978;2022-09-12T07:44:09;34.55;;;21.23;;
58946;SDS011;44724;52.332;4.978;2022-09-12T07:46:34;31.10;;;19.92;;
58946;SDS011;44724;52.332;4.978;2022-09-12T07:49:00;31.95;;;19.35;;
58946;SDS011;44724;52.332;4.978;2022-09-12T07:51:27;28.98;;;18.40;;
58946;SDS011;44724;52.332;4.978;2022-09-12T07:53:54;32.00;;;19.20;;
58946;SDS011;44724;52.332;4.978;2022-09-12T07:56:20;42.80;;;21.13;;
58946;SDS011;44724;52.332;4.978;2022-09-12T07:58:46;35.92;;;19.75;;
58946;SDS011;44724;52.332;4.978;2022-09-12T08:01:16;30.90;;;18.63;;
58946;SDS011;44724;52.332;4.978;2022-09-12T08:03:44;35.28;;;20.75;;
58946;SDS011;44724;52.332;4.978;2022-09-12T08:06:12;30.58;;;19.90;;
58946;SDS011;44724;52.332;4.978;2022-09-12T08:08:45;28.67;;;17.50;;
58946;SDS011;44724;52.332;4.978;2022-09-12T08:11:13;29.20;;;17.90;;
58946;SDS011;44724;52.332;4.978;2022-09-12T08:13:40;30.52;;;17.52;;
58946;SDS011;44724;52.332;4.978;2022-09-12T08:16:11;32.45;;;19.02;;
58946;SDS011;44724;52.332;4.978;2022-09-12T08:18:38;43.85;;;19.05;;
58946;SDS011;44724;52.332;4.978;2022-09-12T08:21:04;32.60;;;18.65;;
58946;SDS011;44724;52.332;4.978;2022-09-12T08:23:31;34.03;;;18.25;;
58946;SDS011;44724;52.332;4.978;2022-09-12T08:25:59;35.25;;;17.77;;
58946;SDS011;44724;52.332;4.978;2022-09-12T08:28:27;34.40;;;18.50;;
58946;SDS011;44724;52.332;4.978;2022-09-12T08:30:53;31.42;;;17.60;;
58946;SDS011;44724;52.332;4.978;2022-09-12T08:33:20;26.95;;;16.48;;
58946;SDS011;44724;52.332;4.978;2022-09-12T08:35:46;23.73;;;16.77;;
58946;SDS011;44724;52.332;4.978;2022-09-12T08:38:11;20.83;;;15.32;;
58946;SDS011;44724;52.332;4.978;2022-09-12T08:40:49;23.98;;;14.38;;
58946;SDS011;44724;52.332;4.978;2022-09-12T08:43:26;18.05;;;13.38;;
58946;SDS011;44724;52.332;4.978;2022-09-12T08:46:05;20.98;;;13.95;;
58946;SDS011;44724;52.332;4.978;2022-09-12T08:48:37;23.50;;;15.18;;
58946;SDS011;44724;52.332;4.978;2022-09-12T08:51:04;20.40;;;13.68;;
58946;SDS011;44724;52.332;4.978;2022-09-12T08:53:29;14.95;;;9.95;;
58946;SDS011;44724;52.332;4.978;2022-09-12T08:55:59;18.90;;;13.38;;
58946;SDS011;44724;52.332;4.978;2022-09-12T08:58:28;21.15;;;14.27;;
58946;SDS011;44724;52.332;4.978;2022-09-12T09:04:09;18.70;;;14.18;;
58946;SDS011;44724;52.332;4.978;2022-09-12T09:06:56;18.67;;;14.45;;
58946;SDS011;44724;52.332;4.978;2022-09-12T09:17:45;20.05;;;14.70;;
58946;SDS011;44724;52.332;4.978;2022-09-12T09:22:48;21.48;;;15.80;;
58946;SDS011;44724;52.332;4.978;2022-09-12T09:25:24;20.95;;;14.73;;
58946;SDS011;44724;52.332;4.978;2022-09-12T09:28:01;18.13;;;14.18;;
58946;SDS011;44724;52.332;4.978;2022-09-12T09:30:30;15.27;;;13.48;;
58946;SDS011;44724;52.332;4.978;2022-09-12T09:33:00;18.02;;;14.23;;
58946;SDS011;44724;52.332;4.978;2022-09-12T09:38:09;19.58;;;14.68;;
58946;SDS011;44724;52.332;4.978;2022-09-12T09:40:52;21.20;;;15.50;;
58946;SDS011;44724;52.332;4.978;2022-09-12T09:43:27;16.50;;;11.90;;
58946;SDS011;44724;52.332;4.978;2022-09-12T09:45:53;15.55;;;11.20;;
58946;SDS011;44724;52.332;4.978;2022-09-12T09:48:21;13.57;;;11.70;;
58946;SDS011;44724;52.332;4.978;2022-09-12T09:51:00;19.35;;;13.10;;
58946;SDS011;44724;52.332;4.978;2022-09-12T09:56:45;27.42;;;13.70;;
58946;SDS011;44724;52.332;4.978;2022-09-12T09:58:46;22.75;;;13.27;;
58946;SDS011;44724;52.332;4.978;2022-09-12T10:01:13;12.80;;;10.43;;
58946;SDS011;44724;52.332;4.978;2022-09-12T10:03:46;16.98;;;12.27;;
58946;SDS011;44724;52.332;4.978;2022-09-12T10:06:31;19.33;;;12.98;;
58946;SDS011;44724;52.332;4.978;2022-09-12T10:09:27;18.30;;;12.43;;
58946;SDS011;44724;52.332;4.978;2022-09-12T10:11:57;19.05;;;12.98;;
58946;SDS011;44724;52.332;4.978;2022-09-12T10:16:59;15.45;;;11.27;;
58946;SDS011;44724;52.332;4.978;2022-09-12T10:19:32;16.35;;;12.35;;
58946;SDS011;44724;52.332;4.978;2022-09-12T10:22:00;19.05;;;12.65;;
58946;SDS011;44724;52.332;4.978;2022-09-12T10:24:35;17.13;;;12.45;;
58946;SDS011;44724;52.332;4.978;2022-09-12T10:29:40;14.23;;;10.75;;
58946;SDS011;44724;52.332;4.978;2022-09-12T10:32:12;15.65;;;11.82;;
58946;SDS011;44724;52.332;4.978;2022-09-12T10:34:53;18.10;;;12.13;;
58946;SDS011;44724;52.332;4.978;2022-09-12T10:37:30;17.73;;;12.13;;
58946;SDS011;44724;52.332;4.978;2022-09-12T10:39:59;21.42;;;11.75;;
58946;SDS011;44724;52.332;4.978;2022-09-12T10:45:19;13.82;;;10.77;;
58946;SDS011;44724;52.332;4.978;2022-09-12T10:47:54;19.63;;;11.55;;
58946;SDS011;44724;52.332;4.978;2022-09-12T10:53:11;13.40;;;10.88;;
58946;SDS011;44724;52.332;4.978;2022-09-12T10:55:54;13.55;;;11.45;;
58946;SDS011;44724;52.332;4.978;2022-09-12T11:04:47;12.43;;;10.35;;
58946;SDS011;44724;52.332;4.978;2022-09-12T11:07:38;12.25;;;9.27;;
58946;SDS011;44724;52.332;4.978;2022-09-12T11:12:50;13.52;;;10.20;;
58946;SDS011;44724;52.332;4.978;2022-09-12T11:27:24;10.20;;;8.75;;
58946;SDS011;44724;52.332;4.978;2022-09-12T11:30:11;13.48;;;9.15;;
58946;SDS011;44724;52.332;4.978;2022-09-12T11:35:17;12.88;;;8.00;;
58946;SDS011;44724;52.332;4.978;2022-09-12T11:40:54;9.30;;;7.57;;
58946;SDS011;44724;52.332;4.978;2022-09-12T11:43:42;9.15;;;6.70;;
58946;SDS011;44724;52.332;4.978;2022-09-12T11:51:40;9.45;;;6.70;;
58946;SDS011;44724;52.332;4.978;2022-09-12T11:59:45;9.35;;;6.13;;
58946;SDS011;44724;52.332;4.978;2022-09-12T12:02:25;11.13;;;7.28;;
58946;SDS011;44724;52.332;4.978;2022-09-12T12:04:58;9.10;;;5.68;;
58946;SDS011;44724;52.332;4.978;2022-09-12T12:07:54;6.05;;;4.20;;
58946;SDS011;44724;52.332;4.978;2022-09-12T12:13:07;6.10;;;4.43;;
58946;SDS011;44724;52.332;4.978;2022-09-12T12:15:46;5.22;;;4.45;;
58946;SDS011;44724;52.332;4.978;2022-09-12T12:18:27;8.20;;;4.95;;
58946;SDS011;44724;52.332;4.978;2022-09-12T12:20:54;5.25;;;4.10;;
58946;SDS011;44724;52.332;4.978;2022-09-12T12:23:30;4.70;;;4.22;;
58946;SDS011;44724;52.332;4.978;2022-09-12T12:26:01;8.25;;;4.65;;
58946;SDS011;44724;52.332;4.978;2022-09-12T12:31:14;6.78;;;4.85;;
58946;SDS011;44724;52.332;4.978;2022-09-12T12:36:11;6.40;;;4.40;;
58946;SDS011;44724;52.332;4.978;2022-09-12T12:38:58;5.85;;;3.95;;
58946;SDS011;44724;52.332;4.978;2022-09-12T12:43:50;9.15;;;4.05;;
58946;SDS011;44724;52.332;4.978;2022-09-12T12:46:19;11.75;;;4.88;;
58946;SDS011;44724;52.332;4.978;2022-09-12T12:49:04;6.22;;;4.80;;
58946;SDS011;44724;52.332;4.978;2022-09-12T12:54:04;10.70;;;6.03;;
58946;SDS011;44724;52.332;4.978;2022-09-12T12:56:52;9.27;;;4.95;;
58946;SDS011;44724;52.332;4.978;2022-09-12T12:59:25;7.15;;;5.72;;
58946;SDS011;44724;52.332;4.978;2022-09-12T13:01:56;7.80;;;5.50;;
58946;SDS011;44724;52.332;4.978;2022-09-12T13:04:25;6.38;;;5.57;;
58946;SDS011;44724;52.332;4.978;2022-09-12T13:07:12;6.38;;;5.10;;
58946;SDS011;44724;52.332;4.978;2022-09-12T13:12:24;5.90;;;5.30;;
58946;SDS011;44724;52.332;4.978;2022-09-12T13:15:27;7.72;;;6.28;;
58946;SDS011;44724;52.332;4.978;2022-09-12T13:18:18;16.08;;;6.68;;
58946;SDS011;44724;52.332;4.978;2022-09-12T13:23:25;7.13;;;5.95;;
58946;SDS011;44724;52.332;4.978;2022-09-12T13:25:53;7.85;;;5.88;;
58946;SDS011;44724;52.332;4.978;2022-09-12T13:28:21;7.25;;;5.32;;
58946;SDS011;44724;52.332;4.978;2022-09-12T13:44:01;13.73;;;6.53;;
58946;SDS011;44724;52.332;4.978;2022-09-12T13:46:31;13.73;;;6.57;;
58946;SDS011;44724;52.332;4.978;2022-09-12T13:48:59;7.53;;;5.35;;
58946;SDS011;44724;52.332;4.978;2022-09-12T13:51:30;7.93;;;5.50;;
58946;SDS011;44724;52.332;4.978;2022-09-12T13:53:57;5.30;;;4.38;;
58946;SDS011;44724;52.332;4.978;2022-09-12T13:56:26;6.85;;;5.65;;
58946;SDS011;44724;52.332;4.978;2022-09-12T13:58:55;10.50;;;5.40;;
58946;SDS011;44724;52.332;4.978;2022-09-12T14:01:38;7.90;;;4.82;;
58946;SDS011;44724;52.332;4.978;2022-09-12T14:04:24;11.15;;;5.30;;
58946;SDS011;44724;52.332;4.978;2022-09-12T14:09:45;6.70;;;4.68;;
58946;SDS011;44724;52.332;4.978;2022-09-12T14:12:21;7.15;;;4.63;;
58946;SDS011;44724;52.332;4.978;2022-09-12T14:14:50;7.07;;;4.80;;
58946;SDS011;44724;52.332;4.978;2022-09-12T14:17:26;7.85;;;5.38;;
58946;SDS011;44724;52.332;4.978;2022-09-12T14:20:00;10.85;;;5.85;;
58946;SDS011;44724;52.332;4.978;2022-09-12T14:22:29;6.32;;;5.20;;
58946;SDS011;44724;52.332;4.978;2022-09-12T14:24:56;6.70;;;4.60;;
58946;SDS011;44724;52.332;4.978;2022-09-12T14:27:24;5.25;;;4.20;;
58946;SDS011;44724;52.332;4.978;2022-09-12T14:30:03;6.53;;;4.40;;
58946;SDS011;44724;52.332;4.978;2022-09-12T14:32:31;4.38;;;3.88;;
58946;SDS011;44724;52.332;4.978;2022-09-12T14:35:16;9.70;;;4.70;;
58946;SDS011;44724;52.332;4.978;2022-09-12T14:37:44;13.35;;;4.53;;
58946;SDS011;44724;52.332;4.978;2022-09-12T14:40:22;7.18;;;4.38;;
58946;SDS011;44724;52.332;4.978;2022-09-12T14:42:50;5.32;;;4.47;;
58946;SDS011;44724;52.332;4.978;2022-09-12T14:45:21;10.45;;;4.40;;
58946;SDS011;44724;52.332;4.978;2022-09-12T14:47:57;8.20;;;4.47;;
58946;SDS011;44724;52.332;4.978;2022-09-12T14:50:24;4.57;;;3.80;;
58946;SDS011;44724;52.332;4.978;2022-09-12T14:53:04;7.90;;;4.85;;
58946;SDS011;44724;52.332;4.978;2022-09-12T14:55:32;5.28;;;3.72;;
58946;SDS011;44724;52.332;4.978;2022-09-12T15:00:57;6.10;;;3.85;;
58946;SDS011;44724;52.332;4.978;2022-09-12T15:04:08;5.53;;;3.72;;
58946;SDS011;44724;52.332;4.978;2022-09-12T15:06:24;6.00;;;4.00;;
58946;SDS011;44724;52.332;4.978;2022-09-12T15:08:53;7.40;;;4.05;;
58946;SDS011;44724;52.332;4.978;2022-09-12T15:11:20;5.13;;;4.30;;
58946;SDS011;44724;52.332;4.978;2022-09-12T15:13:46;4.10;;;3.67;;
58946;SDS011;44724;52.332;4.978;2022-09-12T15:16:11;4.03;;;3.60;;
58946;SDS011;44724;52.332;4.978;2022-09-12T15:18:37;5.85;;;3.83;;
58946;SDS011;44724;52.332;4.978;2022-09-12T15:21:04;4.57;;;3.63;;
58946;SDS011;44724;52.332;4.978;2022-09-12T15:23:55;3.57;;;3.27;;
58946;SDS011;44724;52.332;4.978;2022-09-12T15:26:23;4.53;;;3.20;;
58946;SDS011;44724;52.332;4.978;2022-09-12T15:28:51;4.82;;;3.95;;
58946;SDS011;44724;52.332;4.978;2022-09-12T15:31:20;4.85;;;3.33;;
58946;SDS011;44724;52.332;4.978;2022-09-12T15:33:57;3.88;;;2.78;;
58946;SDS011;44724;52.332;4.978;2022-09-12T15:36:23;2.97;;;2.72;;
58946;SDS011;44724;52.332;4.978;2022-09-12T15:38:52;3.20;;;2.80;;
58946;SDS011;44724;52.332;4.978;2022-09-12T15:43:44;3.30;;;3.00;;
58946;SDS011;44724;52.332;4.978;2022-09-12T15:46:11;5.60;;;3.80;;
58946;SDS011;44724;52.332;4.978;2022-09-12T15:48:37;3.67;;;3.22;;
58946;SDS011;44724;52.332;4.978;2022-09-12T15:51:03;3.83;;;3.53;;
58946;SDS011;44724;52.332;4.978;2022-09-12T15:53:29;4.25;;;3.22;;
58946;SDS011;44724;52.332;4.978;2022-09-12T15:55:55;3.40;;;3.10;;
58946;SDS011;44724;52.332;4.978;2022-09-12T15:58:21;4.20;;;3.08;;
58946;SDS011;44724;52.332;4.978;2022-09-12T16:00:47;3.22;;;2.97;;
58946;SDS011;44724;52.332;4.978;2022-09-12T16:03:16;4.05;;;3.10;;
58946;SDS011;44724;52.332;4.978;2022-09-12T16:05:46;3.50;;;3.20;;
58946;SDS011;44724;52.332;4.978;2022-09-12T16:08:11;3.10;;;2.90;;
58946;SDS011;44724;52.332;4.978;2022-09-12T16:10:36;3.53;;;3.22;;
58946;SDS011;44724;52.332;4.978;2022-09-12T16:13:02;3.75;;;3.38;;
58946;SDS011;44724;52.332;4.978;2022-09-12T16:15:28;3.60;;;3.30;;
58946;SDS011;44724;52.332;4.978;2022-09-12T16:17:54;4.32;;;3.30;;
58946;SDS011;44724;52.332;4.978;2022-09-12T16:20:19;4.05;;;3.20;;
58946;SDS011;44724;52.332;4.978;2022-09-12T16:22:46;2.97;;;2.67;;
58946;SDS011;44724;52.332;4.978;2022-09-12T16:25:12;3.95;;;3.20;;
58946;SDS011;44724;52.332;4.978;2022-09-12T16:27:38;5.50;;;3.28;;
58946;SDS011;44724;52.332;4.978;2022-09-12T16:30:04;5.03;;;3.03;;
58946;SDS011;44724;52.332;4.978;2022-09-12T16:32:31;5.05;;;3.30;;
58946;SDS011;44724;52.332;4.978;2022-09-12T16:34:56;4.72;;;3.10;;
58946;SDS011;44724;52.332;4.978;2022-09-12T16:37:22;3.20;;;2.90;;
58946;SDS011;44724;52.332;4.978;2022-09-12T16:39:47;3.30;;;3.00;;
58946;SDS011;44724;52.332;4.978;2022-09-12T16:42:14;3.25;;;2.70;;
58946;SDS011;44724;52.332;4.978;2022-09-12T16:44:41;3.47;;;2.58;;
58946;SDS011;44724;52.332;4.978;2022-09-12T16:47:07;3.63;;;2.90;;
58946;SDS011;44724;52.332;4.978;2022-09-12T16:49:33;3.10;;;2.65;;
58946;SDS011;44724;52.332;4.978;2022-09-12T16:51:58;3.45;;;2.55;;
58946;SDS011;44724;52.332;4.978;2022-09-12T16:54:24;3.55;;;2.60;;
58946;SDS011;44724;52.332;4.978;2022-09-12T16:56:52;3.38;;;2.80;;
58946;SDS011;44724;52.332;4.978;2022-09-12T16:59:17;4.50;;;2.95;;
58946;SDS011;44724;52.332;4.978;2022-09-12T17:01:43;3.22;;;2.63;;
58946;SDS011;44724;52.332;4.978;2022-09-12T17:04:09;2.55;;;2.35;;
58946;SDS011;44724;52.332;4.978;2022-09-12T17:06:35;2.97;;;2.67;;
58946;SDS011;44724;52.332;4.978;2022-09-12T17:09:02;3.83;;;2.88;;
58946;SDS011;44724;52.332;4.978;2022-09-12T17:11:30;4.53;;;2.80;;
58946;SDS011;44724;52.332;4.978;2022-09-12T17:14:00;3.83;;;2.90;;
58946;SDS011;44724;52.332;4.978;2022-09-12T17:16:28;3.10;;;2.78;;
58946;SDS011;44724;52.332;4.978;2022-09-12T17:18:53;3.78;;;3.00;;
58946;SDS011;44724;52.332;4.978;2022-09-12T17:21:20;3.13;;;2.92;;
58946;SDS011;44724;52.332;4.978;2022-09-12T17:23:45;5.65;;;3.13;;
58946;SDS011;44724;52.332;4.978;2022-09-12T17:26:11;3.97;;;2.65;;